Latest Weather Observations for Girilambone

IDN60801

Issued at 3:02 pm EDT Sunday 17 February 2019 (issued every 10 minutes, with the page automatically refreshed every 10 minutes)

About weather observations | Map of weather stations | Latest weather observations for NSW | Other Formats
Station Details ID: 051164 Name: GIRILAMBONE (OKEH) AWS Lat: -31.08 Lon: 146.93 Height: 178.0 m
Data from the previous 72 hours. | See also: Recent months at Girilambone
Date/Time
EDT
Temp
°C
App
Temp
°C
Dew
Point
°C
Rel
Hum
%
Delta-T
°C
Wind Press
QNH
hPa
Press
MSL
hPa
Rain since
9am
mm
Dir  Spd
km/h
Gust
km/h
Spd
kts
Gust
kts
17/03:00pm 36.6 - 5.8 15 16.9 - - - - - - - 0.0
17/02:30pm 35.6 - 5.0 15 16.5 - - - - - - - 0.0
17/02:00pm 35.6 - 5.9 16 16.3 - - - - - - - 0.0
17/01:30pm 35.1 - 5.5 16 16.1 - - - - - - - 0.0
17/01:00pm 34.7 - 6.1 17 15.7 - - - - - - - 0.0
17/12:30pm 35.3 - 6.6 17 15.9 - - - - - - - 0.0
17/12:00pm 33.5 - 6.7 19 14.7 - - - - - - - 0.0
17/11:30am 32.2 - 6.4 20 14.0 - - - - - - - 0.0
17/11:00am 31.0 - 6.8 22 13.1 - - - - - - - 0.0
17/10:30am 29.6 - 6.9 24 12.3 - - - - - - - 0.0
17/10:00am 28.7 - 7.9 27 11.4 - - - - - - - 0.0
17/09:30am 27.3 - 7.7 29 10.6 - - - - - - - 0.0
17/09:00am 26.7 - 8.6 32 9.9 - - - - - - - 0.0
17/08:30am 25.3 - 7.9 33 9.3 - - - - - - - 0.0
17/08:00am 23.9 - 7.5 35 8.7 - - - - - - - 0.0
17/07:30am 21.0 - 6.5 39 7.4 - - - - - - - 0.0
17/07:00am 20.0 - 6.4 41 6.9 - - - - - - - 0.0
17/06:30am 20.3 - 6.3 40 7.1 - - - - - - - 0.0
17/06:00am 20.7 - 6.6 40 7.2 - - - - - - - 0.0
17/05:30am 21.1 - 6.2 38 7.6 - - - - - - - 0.0
17/05:00am 21.1 - 6.2 38 7.6 - - - - - - - 0.0
17/04:30am 21.6 - 5.9 36 7.9 - - - - - - - 0.0
17/04:00am 22.0 - 6.3 36 8.0 - - - - - - - 0.0
17/03:30am 22.4 - 6.2 35 8.3 - - - - - - - 0.0
17/03:00am 22.9 - 6.2 34 8.6 - - - - - - - 0.0
17/02:30am 23.3 - 6.1 33 8.8 - - - - - - - 0.0
17/02:00am 24.0 - 6.7 33 9.0 - - - - - - - 0.0
17/01:30am 24.9 - 6.6 31 9.6 - - - - - - - 0.0
17/01:00am 25.6 - 6.3 29 10.1 - - - - - - - 0.0
17/12:30am 27.5 - 6.8 27 11.0 - - - - - - - 0.0
17/12:00am 27.9 - 7.2 27 11.1 - - - - - - - 0.0
 
Date/Time
EDT
Temp
°C
App
Temp
°C
Dew
Point
°C
Rel
Hum
%
Delta-T
°C
Wind Press
QNH
hPa
Press
MSL
hPa
Rain since
9am
mm
Dir  Spd
km/h
Gust
km/h
Spd
kts
Gust
kts
16/11:30pm 28.5 - 7.1 26 11.5 - - - - - - - 0.0
16/11:00pm 29.2 - 7.2 25 11.9 - - - - - - - 0.0
16/10:30pm 29.4 - 6.7 24 12.2 - - - - - - - 0.0
16/10:00pm 30.1 - 6.7 23 12.6 - - - - - - - 0.0
16/09:30pm 30.8 - 6.6 22 13.1 - - - - - - - 0.0
16/09:00pm 31.4 - 7.1 22 13.3 - - - - - - - 0.0
16/08:30pm 32.3 - 7.2 21 13.8 - - - - - - - 0.0
16/08:00pm 32.9 - 7.7 21 14.0 - - - - - - - 0.0
16/07:30pm 33.4 - 7.4 20 14.4 - - - - - - - 0.0
16/07:00pm 33.6 - 7.6 20 14.5 - - - - - - - 0.0
16/06:30pm 34.2 - 7.3 19 15.0 - - - - - - - 0.0
16/06:00pm 34.3 - 7.4 19 15.0 - - - - - - - 0.0
16/05:30pm 34.3 - 7.4 19 15.0 - - - - - - - 0.0
16/05:00pm 34.8 - 7.8 19 15.2 - - - - - - - 0.0
16/04:30pm 35.4 - 8.3 19 15.4 - - - - - - - 0.0
16/04:00pm 33.8 - 8.4 21 14.4 - - - - - - - 0.0
16/03:30pm 33.9 - 8.5 21 14.4 - - - - - - - 0.0
16/03:00pm 34.1 - 9.4 22 14.2 - - - - - - - 0.0
16/02:30pm 33.1 - 9.2 23 13.6 - - - - - - - 0.0
16/02:00pm 33.2 - 9.9 24 13.4 - - - - - - - 0.0
16/01:30pm 32.0 - 8.9 24 13.0 - - - - - - - 0.0
16/01:00pm 31.9 - 9.4 25 12.8 - - - - - - - 0.0
16/12:30pm 30.2 - 9.1 27 11.9 - - - - - - - 0.0
16/12:00pm 29.9 - 9.4 28 11.6 - - - - - - - 0.0
16/11:30am 28.8 - 9.0 29 11.0 - - - - - - - 0.0
16/11:00am 28.2 - 8.5 29 10.8 - - - - - - - 0.0
16/10:30am 27.6 - 8.5 30 10.5 - - - - - - - 0.0
16/10:00am 26.7 - 8.2 31 10.1 - - - - - - - 0.0
16/09:30am 25.4 - 9.3 36 8.9 - - - - - - - 0.0
16/09:00am 24.6 - 9.7 39 8.2 - - - - - - - 0.0
16/08:30am 24.0 - 10.3 42 7.6 - - - - - - - 0.0
16/08:00am 23.1 - 10.5 45 7.0 - - - - - - - 0.0
16/07:30am 21.9 - 10.7 49 6.2 - - - - - - - 0.0
16/07:00am 21.2 - 10.7 51 5.8 - - - - - - - 0.0
16/06:30am 21.6 - 10.7 50 6.0 - - - - - - - 0.0
16/06:00am 21.8 - 10.6 49 6.2 - - - - - - - 0.0
16/05:30am 22.3 - 10.1 46 6.7 - - - - - - - 0.0
16/05:00am 22.9 - 10.0 44 7.1 - - - - - - - 0.0
16/04:30am 23.4 - 9.8 42 7.5 - - - - - - - 0.0
16/04:00am 24.1 - 9.3 39 8.1 - - - - - - - 0.0
16/03:30am 24.5 - 8.0 35 8.8 - - - - - - - 0.0
16/03:00am 25.0 - 7.6 33 9.3 - - - - - - - 0.0
16/02:30am 25.5 - 6.7 30 9.9 - - - - - - - 0.0
16/02:00am 26.0 - 5.6 27 10.6 - - - - - - - 0.0
16/01:30am 26.5 - 4.9 25 11.1 - - - - - - - 0.0
16/01:00am 26.9 - 4.0 23 11.6 - - - - - - - 0.0
16/12:30am 27.0 - 2.1 20 12.2 - - - - - - - 0.0
16/12:00am 27.7 - 2.0 19 12.6 - - - - - - - 0.0
 
Date/Time
EDT
Temp
°C
App
Temp
°C
Dew
Point
°C
Rel
Hum
%
Delta-T
°C
Wind Press
QNH
hPa
Press
MSL
hPa
Rain since
9am
mm
Dir  Spd
km/h
Gust
km/h
Spd
kts
Gust
kts
15/11:30pm 28.1 - 2.3 19 12.8 - - - - - - - 0.0
15/11:00pm 28.5 - 2.7 19 12.9 - - - - - - - 0.0
15/10:30pm 29.2 - 4.0 20 12.9 - - - - - - - 0.0
15/10:00pm 29.8 - 5.1 21 13.0 - - - - - - - 0.0
15/09:30pm 30.5 - 6.4 22 13.0 - - - - - - - 0.0
15/09:00pm 31.1 - 7.5 23 13.0 - - - - - - - 0.0
15/08:30pm 31.6 - 8.6 24 12.9 - - - - - - - 0.0
15/08:00pm 32.1 - 9.0 24 13.1 - - - - - - - 0.0
15/07:30pm 32.9 - 9.0 23 13.6 - - - - - - - 0.0
15/07:00pm 33.7 - 9.7 23 13.8 - - - - - - - 0.0
15/06:30pm 34.0 - 9.3 22 14.2 - - - - - - - 0.0
15/06:00pm 34.1 - 10.0 23 14.0 - - - - - - - 0.0
15/05:30pm 33.7 - 10.3 24 13.6 - - - - - - - 0.0
15/05:00pm 34.1 - 11.3 25 13.5 - - - - - - - 0.0
15/04:30pm 34.0 - 11.8 26 13.2 - - - - - - - 0.0
15/04:00pm 33.8 - 11.6 26 13.2 - - - - - - - 0.0
15/03:30pm 33.5 - 11.9 27 12.9 - - - - - - - 0.0
15/03:00pm 33.3 - 12.3 28 12.6 - - - - - - - 0.0
15/02:30pm 32.2 - 11.9 29 12.0 - - - - - - - 0.0
15/02:00pm 32.3 - 12.0 29 12.1 - - - - - - - 0.0
15/01:30pm 31.7 - 12.5 31 11.5 - - - - - - - 0.0
15/01:00pm 31.2 - 12.1 31 11.3 - - - - - - - 0.0
15/12:30pm 30.7 - 12.1 32 11.0 - - - - - - - 0.0
15/12:00pm 30.4 - 12.3 33 10.7 - - - - - - - 0.0
15/11:30am 29.1 - 12.1 35 10.0 - - - - - - - 0.0
15/11:00am 28.1 - 12.5 38 9.2 - - - - - - - 0.0
15/10:30am 28.0 - 12.8 39 9.0 - - - - - - - 0.0
15/10:00am 26.5 - 12.5 41 8.2 - - - - - - - 0.0
15/09:30am 25.5 - 12.0 43 7.8 - - - - - - - 0.0
15/09:00am 24.7 - 12.0 45 7.3 - - - - - - - 0.0
15/08:30am 23.5 - 11.5 47 6.8 - - - - - - - 0.0
15/08:00am 22.4 - 10.9 48 6.4 - - - - - - - 0.0
15/07:30am 21.6 - 10.1 48 6.3 - - - - - - - 0.0
15/07:00am 21.5 - 10.0 48 6.3 - - - - - - - 0.0
15/06:30am 21.6 - 9.2 45 6.7 - - - - - - - 0.0
15/06:00am 22.0 - 8.9 43 7.0 - - - - - - - 0.0
15/05:30am 22.3 - 7.3 38 7.8 - - - - - - - 0.0
15/05:00am 22.6 - 6.0 34 8.5 - - - - - - - 0.0
15/04:30am 23.0 - 5.0 31 9.0 - - - - - - - 0.0
15/04:00am 23.4 - 3.9 28 9.6 - - - - - - - 0.0
15/03:30am 23.9 - 2.7 25 10.3 - - - - - - - 0.0
15/03:00am 24.3 - 1.9 23 10.7 - - - - - - - 0.0
15/02:30am 24.6 - 1.5 22 11.0 - - - - - - - 0.0
15/02:00am 24.9 - 2.4 23 10.9 - - - - - - - 0.0
15/01:30am 25.4 - 2.8 23 11.1 - - - - - - - 0.0
15/01:00am 25.8 - 3.1 23 11.2 - - - - - - - 0.0
15/12:30am 26.2 - 3.5 23 11.3 - - - - - - - 0.0
15/12:00am 26.7 - 3.9 23 11.5 - - - - - - - 0.0
 
Date/Time
EDT
Temp
°C
App
Temp
°C
Dew
Point
°C
Rel
Hum
%
Delta-T
°C
Wind Press
QNH
hPa
Press
MSL
hPa
Rain since
9am
mm
Dir  Spd
km/h
Gust
km/h
Spd
kts
Gust
kts
14/11:30pm 27.3 - 5.6 25 11.3 - - - - - - - 0.0
14/11:00pm 27.8 - 6.6 26 11.3 - - - - - - - 0.0
14/10:30pm 28.1 - 7.4 27 11.2 - - - - - - - 0.0
14/10:00pm 28.4 - 9.2 30 10.7 - - - - - - - 0.0
14/09:30pm 28.8 - 10.0 31 10.6 - - - - - - - 0.0
14/09:00pm 29.1 - 10.3 31 10.7 - - - - - - - 0.0
14/08:30pm 29.5 - 10.1 30 11.0 - - - - - - - 0.0
14/08:00pm 30.0 - 10.5 30 11.2 - - - - - - - 0.0
14/07:30pm 30.6 - 10.5 29 11.6 - - - - - - - 0.0
14/07:00pm 31.4 - 10.7 28 12.0 - - - - - - - 0.0
14/06:30pm 31.4 - 10.2 27 12.2 - - - - - - - 0.0
14/06:00pm 31.7 - 10.4 27 12.3 - - - - - - - 0.0
14/05:30pm 31.3 - 10.1 27 12.2 - - - - - - - 0.0
14/05:00pm 31.6 - 10.9 28 12.0 - - - - - - - 0.0
14/04:30pm 30.7 - 10.6 29 11.6 - - - - - - - 0.0
14/04:00pm 31.4 - 10.7 28 12.0 - - - - - - - 0.0
14/03:30pm 31.1 - 10.4 28 11.9 - - - - - - - 0.0

Other Formats:

Comma delimited format used in spreadsheet applications
http://www.bom.gov.au/fwo/IDN60801/IDN60801.94794.axf

JavaScript Object Notation format (JSON) in row-major order
http://www.bom.gov.au/fwo/IDN60801/IDN60801.94794.json